Map

Track Data

SID SEASON NUMBER BASIN SUBBASIN NAME ISO_TIME NATURE LAT LON WMO_WIND WMO_PRES WMO_AGENCY TRACK_TYPE DIST2LAND LANDFALL IFLAG USA_AGENCY USA_ATCF_ID USA_LAT USA_LON USA_RECORD USA_STATUS USA_WIND USA_PRES USA_SSHS USA_R34_NE USA_R34_SE USA_R34_SW USA_R34_NW USA_R50_NE USA_R50_SE USA_R50_SW USA_R50_NW USA_R64_NE USA_R64_SE USA_R64_SW USA_R64_NW USA_POCI USA_ROCI USA_RMW USA_EYE TOKYO_LAT TOKYO_LON TOKYO_GRADE TOKYO_WIND TOKYO_PRES TOKYO_R50_DIR TOKYO_R50_LONG TOKYO_R50_SHORT TOKYO_R30_DIR TOKYO_R30_LONG TOKYO_R30_SHORT TOKYO_LAND CMA_LAT CMA_LON CMA_CAT CMA_WIND CMA_PRES HKO_LAT HKO_LON HKO_CAT HKO_WIND HKO_PRES NEWDELHI_LAT NEWDELHI_LON NEWDELHI_GRADE NEWDELHI_WIND NEWDELHI_PRES NEWDELHI_CI NEWDELHI_DP NEWDELHI_POCI REUNION_LAT REUNION_LON REUNION_TYPE REUNION_WIND REUNION_PRES REUNION_TNUM REUNION_CI REUNION_RMW REUNION_R34_NE REUNION_R34_SE REUNION_R34_SW REUNION_R34_NW REUNION_R50_NE REUNION_R50_SE REUNION_R50_SW REUNION_R50_NW REUNION_R64_NE REUNION_R64_SE REUNION_R64_SW REUNION_R64_NW BOM_LAT BOM_LON BOM_TYPE BOM_WIND BOM_PRES BOM_TNUM BOM_CI BOM_RMW BOM_R34_NE BOM_R34_SE BOM_R34_SW BOM_R34_NW BOM_R50_NE BOM_R50_SE BOM_R50_SW BOM_R50_NW BOM_R64_NE BOM_R64_SE BOM_R64_SW BOM_R64_NW BOM_ROCI BOM_POCI BOM_EYE BOM_POS_METHOD BOM_PRES_METHOD NADI_LAT NADI_LON NADI_CAT NADI_WIND NADI_PRES WELLINGTON_LAT WELLINGTON_LON WELLINGTON_WIND WELLINGTON_PRES DS824_LAT DS824_LON DS824_STAGE DS824_WIND DS824_PRES TD9636_LAT TD9636_LON TD9636_STAGE TD9636_WIND TD9636_PRES TD9635_LAT TD9635_LON TD9635_WIND TD9635_PRES TD9635_ROCI NEUMANN_LAT NEUMANN_LON NEUMANN_CLASS NEUMANN_WIND NEUMANN_PRES MLC_LAT MLC_LON MLC_CLASS MLC_WIND MLC_PRES USA_GUST BOM_GUST BOM_GUST_PER REUNION_GUST REUNION_GUST_PER USA_SEAHGT USA_SEARAD_NE USA_SEARAD_SE USA_SEARAD_SW USA_SEARAD_NW STORM_SPEED STORM_DIR
1950191N16252 1950 35 EP MM NOT_NAMED 1950-07-09 12:00:00 TS 16.1000 -108.000 75 hurdat_epa main 485 484 O________OO___ hurdat_epa EP031950 16.1000 -108.000 HU 75 1 16.1000 -108.000 TC 75 16.1000 -108.000 4 5 309
1950191N16252 1950 35 EP MM NOT_NAMED 1950-07-09 15:00:00 TS 16.2486 -108.194 main 492 484 P________PP___ EP031950 16.2526 -108.197 HU 75 1 16.2526 -108.197 TC 75 16.2327 -108.180 4 5 308
1950191N16252 1950 35 EP MM NOT_NAMED 1950-07-09 18:00:00 TS 16.3945 -108.396 75 hurdat_epa main 492 492 O________OP___ hurdat_epa EP031950 16.4000 -108.400 HU 75 1 16.4000 -108.400 TC 75 16.3723 -108.378 4 5 305
1950191N16252 1950 35 EP MM NOT_NAMED 1950-07-09 21:00:00 TS 16.5391 -108.618 main 499 491 P________PP___ EP031950 16.5424 -108.620 HU 75 1 16.5424 -108.620 TC 75 16.5258 -108.612 4 6 302
1950191N16252 1950 35 EP MM NOT_NAMED 1950-07-10 00:00:00 TS 16.7000 -108.900 75 hurdat_epa main 507 507 O________OO___ hurdat_epa EP031950 16.7000 -108.900 HU 75 1 16.7000 -108.900 TC 75 16.7000 -108.900 4 7 300
1950191N16252 1950 35 EP MM NOT_NAMED 1950-07-10 03:00:00 TS 16.8936 -109.273 main 525 525 P________PP___ EP031950 16.8925 -109.277 HU 75 1 16.8925 -109.277 TC 75 16.8980 -109.253 4 9 298
1950191N16252 1950 35 EP MM NOT_NAMED 1950-07-10 06:00:00 TS 17.1016 -109.691 75 hurdat_epa main 547 547 O________OP___ hurdat_epa EP031950 17.1000 -109.700 HU 75 1 17.1000 -109.700 TC 75 17.1078 -109.655 4 9 298
1950191N16252 1950 35 EP MM NOT_NAMED 1950-07-10 09:00:00 TS 17.3087 -110.102 main 571 571 P________PP___ EP031950 17.3075 -110.108 HU 75 1 17.3075 -110.108 TC 75 17.3136 -110.078 4 9 297
1950191N16252 1950 35 EP MM NOT_NAMED 1950-07-10 12:00:00 TS 17.5000 -110.500 75 hurdat_epa main 596 587 O________OO___ hurdat_epa EP031950 17.5000 -110.500 HU 75 1 17.5000 -110.500 TC 75 17.5000 -110.500 4 8 296
1950191N16252 1950 35 EP MM NOT_NAMED 1950-07-10 15:00:00 TS 17.6603 -110.853 main 589 581 P________PP___ EP031950 17.6649 -110.850 HU 75 1 17.6649 -110.850 TC 75 17.6419 -110.862 4 7 294
1950191N16252 1950 35 EP MM NOT_NAMED 1950-07-10 18:00:00 TS 17.7928 -111.204 75 hurdat_epa main 583 577 O________OP___ hurdat_epa EP031950 17.8000 -111.200 HU 75 1 17.8000 -111.200 TC 75 17.7641 -111.221 4 7 289
1950191N16252 1950 35 EP MM NOT_NAMED 1950-07-10 21:00:00 TS 17.8958 -111.581 main 583 579 P________PP___ EP031950 17.8999 -111.578 HU 75 1 17.8999 -111.578 TC 75 17.8793 -111.594 4 8 285
1950191N16252 1950 35 EP MM NOT_NAMED 1950-07-11 00:00:00 TS 18.0000 -112.000 75 hurdat_epa main 586 583 O________OO___ hurdat_epa EP031950 18.0000 -112.000 HU 75 1 18.0000 -112.000 TC 75 18.0000 -112.000 4 9 286
1950191N16252 1950 35 EP MM NOT_NAMED 1950-07-11 03:00:00 TS 18.1474 -112.482 main 596 586 P________PP___ EP031950 18.1425 -112.485 HU 75 1 18.1425 -112.485 TC 75 18.1673 -112.468 4 10 288
1950191N16252 1950 35 EP MM NOT_NAMED 1950-07-11 06:00:00 TS 18.3075 -112.994 75 hurdat_epa main 601 597 O________OP___ hurdat_epa EP031950 18.3000 -113.000 HU 75 1 18.3000 -113.000 TC 75 18.3376 -112.969 4 10 288
1950191N16252 1950 35 EP MM NOT_NAMED 1950-07-11 09:00:00 TS 18.4698 -113.503 main 611 611 P________PP___ EP031950 18.4649 -113.507 HU 75 1 18.4649 -113.507 TC 75 18.4891 -113.486 4 10 287
1950191N16252 1950 35 EP MM NOT_NAMED 1950-07-11 12:00:00 TS 18.6000 -114.000 75 hurdat_epa main 635 635 O________OO___ hurdat_epa EP031950 18.6000 -114.000 HU 75 1 18.6000 -114.000 TC 75 18.6000 -114.000 4 9 283
1950191N16252 1950 35 EP MM NOT_NAMED 1950-07-11 15:00:00 TS 18.6764 -114.455 main 662 662 P________PP___ EP031950 18.6798 -114.450 HU 75 1 18.6798 -114.450 TC 75 18.6628 -114.474 4 9 276
1950191N16252 1950 35 EP MM NOT_NAMED 1950-07-11 18:00:00 TS 18.6963 -114.909 75 hurdat_epa main 692 692 O________OP___ hurdat_epa EP031950 18.7000 -114.900 HU 75 1 18.7000 -114.900 TC 75 18.6817 -114.943 4 9 270
1950191N16252 1950 35 EP MM NOT_NAMED 1950-07-11 21:00:00 TS 18.6698 -115.391 main 731 731 P________PP___ EP031950 18.6724 -115.385 HU 75 1 18.6724 -115.385 TC 75 18.6597 -115.415 4 9 264
1950191N16252 1950 35 EP MM NOT_NAMED 1950-07-12 00:00:00 TS 18.6000 -115.900 75 hurdat_epa main 779 779 O________OO___ hurdat_epa EP031950 18.6000 -115.900 HU 75 1 18.6000 -115.900 TC 75 18.6000 -115.900 4 10 261
1950191N16252 1950 35 EP MM NOT_NAMED 1950-07-12 03:00:00 TS 18.5133 -116.441 main 822 822 P________PP___ EP031950 18.5150 -116.450 HU 75 1 18.5150 -116.450 TC 75 18.5065 -116.406 4 11 259
1950191N16252 1950 35 EP MM NOT_NAMED 1950-07-12 06:00:00 TS 18.3973 -116.986 75 hurdat_epa main 867 867 O________OP___ hurdat_epa EP031950 18.4000 -117.000 HU 75 1 18.4000 -117.000 TC 75 18.3864 -116.928 4 10 256
1950191N16252 1950 35 EP MM NOT_NAMED 1950-07-12 09:00:00 TS 18.2558 -117.502 main 907 907 P________PP___ EP031950 18.2577 -117.513 HU 75 1 18.2577 -117.513 TC 75 18.2482 -117.462 4 10 253
1950191N16252 1950 35 EP MM NOT_NAMED 1950-07-12 12:00:00 TS 18.1000 -118.000 75 hurdat_epa main 957 O________OO___ hurdat_epa EP031950 18.1000 -118.000 HU 75 1 18.1000 -118.000 TC 75 18.1000 -118.000 4 10 252

About IBTrACS Database

This database is a web-friendly format of International Best Track Archive for Climate Stewardship (IBTrACS), a global best track data archive curated by NOAA dating back to 1842.

Updated: 2021-10-21